sensor_id;sensor_type;location;lat;lon;timestamp;P1;durP1;ratioP1;P2;durP2;ratioP2
17197;SDS011;8715;51.010;6.812;2022-12-18T00:03:53;104.10;;;96.55;;
17197;SDS011;8715;51.010;6.812;2022-12-18T00:06:19;96.28;;;88.95;;
17197;SDS011;8715;51.010;6.812;2022-12-18T00:08:45;93.20;;;86.30;;
17197;SDS011;8715;51.010;6.812;2022-12-18T00:11:13;91.20;;;84.10;;
17197;SDS011;8715;51.010;6.812;2022-12-18T00:13:40;98.68;;;91.15;;
17197;SDS011;8715;51.010;6.812;2022-12-18T00:16:07;92.60;;;85.60;;
17197;SDS011;8715;51.010;6.812;2022-12-18T00:18:34;93.10;;;86.10;;
17197;SDS011;8715;51.010;6.812;2022-12-18T00:21:00;93.33;;;86.07;;
17197;SDS011;8715;51.010;6.812;2022-12-18T00:23:29;93.38;;;86.43;;
17197;SDS011;8715;51.010;6.812;2022-12-18T00:25:58;88.85;;;82.18;;
17197;SDS011;8715;51.010;6.812;2022-12-18T00:28:24;94.28;;;86.80;;
17197;SDS011;8715;51.010;6.812;2022-12-18T00:30:49;94.80;;;87.70;;
17197;SDS011;8715;51.010;6.812;2022-12-18T00:33:16;93.53;;;86.35;;
17197;SDS011;8715;51.010;6.812;2022-12-18T00:35:42;91.55;;;84.78;;
17197;SDS011;8715;51.010;6.812;2022-12-18T00:38:07;90.50;;;84.00;;
17197;SDS011;8715;51.010;6.812;2022-12-18T00:40:32;85.67;;;79.47;;
17197;SDS011;8715;51.010;6.812;2022-12-18T00:42:58;94.53;;;87.70;;
17197;SDS011;8715;51.010;6.812;2022-12-18T00:45:24;124.10;;;114.90;;
17197;SDS011;8715;51.010;6.812;2022-12-18T00:47:50;109.65;;;102.18;;
17197;SDS011;8715;51.010;6.812;2022-12-18T00:50:15;93.47;;;85.67;;
17197;SDS011;8715;51.010;6.812;2022-12-18T00:52:40;96.50;;;89.38;;
17197;SDS011;8715;51.010;6.812;2022-12-18T00:55:06;87.80;;;80.75;;
17197;SDS011;8715;51.010;6.812;2022-12-18T00:57:32;93.07;;;86.40;;
17197;SDS011;8715;51.010;6.812;2022-12-18T00:59:57;93.45;;;86.40;;
17197;SDS011;8715;51.010;6.812;2022-12-18T01:02:22;94.73;;;87.47;;
17197;SDS011;8715;51.010;6.812;2022-12-18T01:04:48;89.77;;;83.67;;
17197;SDS011;8715;51.010;6.812;2022-12-18T01:07:13;93.63;;;86.95;;
17197;SDS011;8715;51.010;6.812;2022-12-18T01:09:38;92.60;;;86.43;;
17197;SDS011;8715;51.010;6.812;2022-12-18T01:12:04;91.63;;;84.60;;
17197;SDS011;8715;51.010;6.812;2022-12-18T01:14:29;97.45;;;89.63;;
17197;SDS011;8715;51.010;6.812;2022-12-18T01:16:55;87.23;;;81.03;;
17197;SDS011;8715;51.010;6.812;2022-12-18T01:19:20;95.55;;;88.97;;
17197;SDS011;8715;51.010;6.812;2022-12-18T01:21:45;93.63;;;86.70;;
17197;SDS011;8715;51.010;6.812;2022-12-18T01:24:11;93.87;;;87.20;;
17197;SDS011;8715;51.010;6.812;2022-12-18T01:26:37;82.70;;;77.43;;
17197;SDS011;8715;51.010;6.812;2022-12-18T01:29:02;91.75;;;85.30;;
17197;SDS011;8715;51.010;6.812;2022-12-18T01:31:28;93.35;;;86.45;;
17197;SDS011;8715;51.010;6.812;2022-12-18T01:33:55;85.18;;;78.43;;
17197;SDS011;8715;51.010;6.812;2022-12-18T01:36:22;92.95;;;86.15;;
17197;SDS011;8715;51.010;6.812;2022-12-18T01:38:49;102.30;;;94.65;;
17197;SDS011;8715;51.010;6.812;2022-12-18T01:41:16;93.05;;;85.90;;
17197;SDS011;8715;51.010;6.812;2022-12-18T01:43:44;90.60;;;83.82;;
17197;SDS011;8715;51.010;6.812;2022-12-18T01:46:12;98.30;;;91.03;;
17197;SDS011;8715;51.010;6.812;2022-12-18T01:48:37;91.65;;;84.35;;
17197;SDS011;8715;51.010;6.812;2022-12-18T01:51:03;86.43;;;79.82;;
17197;SDS011;8715;51.010;6.812;2022-12-18T01:53:30;97.22;;;89.40;;
17197;SDS011;8715;51.010;6.812;2022-12-18T01:55:56;93.13;;;86.55;;
17197;SDS011;8715;51.010;6.812;2022-12-18T01:58:30;90.30;;;83.05;;
17197;SDS011;8715;51.010;6.812;2022-12-18T02:01:00;89.50;;;82.25;;
17197;SDS011;8715;51.010;6.812;2022-12-18T02:03:26;93.75;;;86.15;;
17197;SDS011;8715;51.010;6.812;2022-12-18T02:06:01;88.67;;;82.67;;
17197;SDS011;8715;51.010;6.812;2022-12-18T02:11:22;102.55;;;95.68;;
17197;SDS011;8715;51.010;6.812;2022-12-18T02:19:14;87.75;;;81.40;;
17197;SDS011;8715;51.010;6.812;2022-12-18T02:24:31;86.00;;;79.22;;
17197;SDS011;8715;51.010;6.812;2022-12-18T02:27:18;86.80;;;80.38;;
17197;SDS011;8715;51.010;6.812;2022-12-18T02:29:46;86.65;;;80.38;;
17197;SDS011;8715;51.010;6.812;2022-12-18T02:32:14;86.78;;;80.30;;
17197;SDS011;8715;51.010;6.812;2022-12-18T02:34:43;86.93;;;80.68;;
17197;SDS011;8715;51.010;6.812;2022-12-18T02:37:10;86.95;;;79.80;;
17197;SDS011;8715;51.010;6.812;2022-12-18T02:39:38;92.35;;;85.80;;
17197;SDS011;8715;51.010;6.812;2022-12-18T02:42:05;88.53;;;82.15;;
17197;SDS011;8715;51.010;6.812;2022-12-18T02:44:33;91.22;;;84.93;;
17197;SDS011;8715;51.010;6.812;2022-12-18T02:47:00;90.38;;;83.65;;
17197;SDS011;8715;51.010;6.812;2022-12-18T02:54:49;85.65;;;78.95;;
17197;SDS011;8715;51.010;6.812;2022-12-18T03:00:28;93.70;;;86.03;;
17197;SDS011;8715;51.010;6.812;2022-12-18T03:02:58;91.30;;;83.75;;
17197;SDS011;8715;51.010;6.812;2022-12-18T03:05:31;85.13;;;78.38;;
17197;SDS011;8715;51.010;6.812;2022-12-18T03:08:11;87.40;;;81.07;;
17197;SDS011;8715;51.010;6.812;2022-12-18T03:10:40;88.85;;;81.93;;
17197;SDS011;8715;51.010;6.812;2022-12-18T03:13:09;90.28;;;83.53;;
17197;SDS011;8715;51.010;6.812;2022-12-18T03:15:38;86.05;;;79.35;;
17197;SDS011;8715;51.010;6.812;2022-12-18T03:18:08;97.15;;;90.28;;
17197;SDS011;8715;51.010;6.812;2022-12-18T03:20:36;114.70;;;107.45;;
17197;SDS011;8715;51.010;6.812;2022-12-18T03:23:07;89.63;;;83.43;;
17197;SDS011;8715;51.010;6.812;2022-12-18T03:25:34;93.13;;;85.80;;
17197;SDS011;8715;51.010;6.812;2022-12-18T03:28:03;92.45;;;85.25;;
17197;SDS011;8715;51.010;6.812;2022-12-18T03:30:30;97.05;;;89.40;;
17197;SDS011;8715;51.010;6.812;2022-12-18T03:33:16;84.82;;;78.72;;
17197;SDS011;8715;51.010;6.812;2022-12-18T03:35:44;95.53;;;87.25;;
17197;SDS011;8715;51.010;6.812;2022-12-18T03:38:10;95.38;;;87.95;;
17197;SDS011;8715;51.010;6.812;2022-12-18T03:41:19;91.43;;;85.00;;
17197;SDS011;8715;51.010;6.812;2022-12-18T03:46:17;93.18;;;85.78;;
17197;SDS011;8715;51.010;6.812;2022-12-18T03:48:51;90.47;;;83.95;;
17197;SDS011;8715;51.010;6.812;2022-12-18T03:51:23;89.35;;;82.50;;
17197;SDS011;8715;51.010;6.812;2022-12-18T03:54:01;84.95;;;78.85;;
17197;SDS011;8715;51.010;6.812;2022-12-18T03:56:32;92.30;;;85.68;;
17197;SDS011;8715;51.010;6.812;2022-12-18T03:59:00;93.85;;;86.53;;
17197;SDS011;8715;51.010;6.812;2022-12-18T04:01:29;92.03;;;85.20;;
17197;SDS011;8715;51.010;6.812;2022-12-18T04:03:57;90.22;;;84.10;;
17197;SDS011;8715;51.010;6.812;2022-12-18T04:06:24;102.60;;;96.05;;
17197;SDS011;8715;51.010;6.812;2022-12-18T04:08:50;100.72;;;93.82;;
17197;SDS011;8715;51.010;6.812;2022-12-18T04:11:16;97.80;;;90.82;;
17197;SDS011;8715;51.010;6.812;2022-12-18T04:13:41;86.75;;;80.43;;
17197;SDS011;8715;51.010;6.812;2022-12-18T04:16:07;93.00;;;86.07;;
17197;SDS011;8715;51.010;6.812;2022-12-18T04:18:34;94.10;;;86.75;;
17197;SDS011;8715;51.010;6.812;2022-12-18T04:21:00;90.93;;;84.95;;
17197;SDS011;8715;51.010;6.812;2022-12-18T04:23:25;94.03;;;87.55;;
17197;SDS011;8715;51.010;6.812;2022-12-18T04:25:50;94.67;;;88.23;;
17197;SDS011;8715;51.010;6.812;2022-12-18T04:28:15;95.97;;;89.47;;
17197;SDS011;8715;51.010;6.812;2022-12-18T04:30:41;96.50;;;89.80;;
17197;SDS011;8715;51.010;6.812;2022-12-18T04:33:10;97.63;;;89.83;;
17197;SDS011;8715;51.010;6.812;2022-12-18T04:35:35;101.63;;;94.13;;
17197;SDS011;8715;51.010;6.812;2022-12-18T04:38:01;108.07;;;100.43;;
17197;SDS011;8715;51.010;6.812;2022-12-18T04:40:26;89.67;;;82.83;;
17197;SDS011;8715;51.010;6.812;2022-12-18T04:42:51;98.07;;;90.15;;
17197;SDS011;8715;51.010;6.812;2022-12-18T04:45:17;91.07;;;83.45;;
17197;SDS011;8715;51.010;6.812;2022-12-18T04:47:42;93.80;;;86.57;;
17197;SDS011;8715;51.010;6.812;2022-12-18T04:50:07;100.93;;;92.67;;
17197;SDS011;8715;51.010;6.812;2022-12-18T04:52:33;100.57;;;93.67;;
17197;SDS011;8715;51.010;6.812;2022-12-18T04:54:58;95.05;;;88.03;;
17197;SDS011;8715;51.010;6.812;2022-12-18T04:57:23;96.47;;;88.83;;
17197;SDS011;8715;51.010;6.812;2022-12-18T04:59:49;122.80;;;114.77;;
17197;SDS011;8715;51.010;6.812;2022-12-18T05:02:14;99.60;;;91.57;;
17197;SDS011;8715;51.010;6.812;2022-12-18T05:04:39;96.37;;;89.23;;
17197;SDS011;8715;51.010;6.812;2022-12-18T05:07:05;98.63;;;90.82;;
17197;SDS011;8715;51.010;6.812;2022-12-18T05:09:30;100.00;;;92.13;;
17197;SDS011;8715;51.010;6.812;2022-12-18T05:11:55;104.97;;;97.10;;
17197;SDS011;8715;51.010;6.812;2022-12-18T05:14:21;98.90;;;91.63;;
17197;SDS011;8715;51.010;6.812;2022-12-18T05:16:46;96.30;;;89.43;;
17197;SDS011;8715;51.010;6.812;2022-12-18T05:19:11;101.20;;;93.00;;
17197;SDS011;8715;51.010;6.812;2022-12-18T05:21:37;93.17;;;86.33;;
17197;SDS011;8715;51.010;6.812;2022-12-18T05:24:02;100.20;;;92.13;;
17197;SDS011;8715;51.010;6.812;2022-12-18T05:26:27;97.25;;;90.25;;
17197;SDS011;8715;51.010;6.812;2022-12-18T05:28:53;102.57;;;94.37;;
17197;SDS011;8715;51.010;6.812;2022-12-18T05:31:18;102.90;;;95.30;;
17197;SDS011;8715;51.010;6.812;2022-12-18T05:33:43;97.83;;;91.07;;
17197;SDS011;8715;51.010;6.812;2022-12-18T05:36:09;99.47;;;91.00;;
17197;SDS011;8715;51.010;6.812;2022-12-18T05:38:35;97.47;;;90.45;;
17197;SDS011;8715;51.010;6.812;2022-12-18T05:41:02;97.20;;;90.07;;
17197;SDS011;8715;51.010;6.812;2022-12-18T05:43:28;92.80;;;85.90;;
17197;SDS011;8715;51.010;6.812;2022-12-18T05:45:54;106.40;;;98.00;;
17197;SDS011;8715;51.010;6.812;2022-12-18T05:48:19;95.68;;;88.50;;
17197;SDS011;8715;51.010;6.812;2022-12-18T05:50:46;95.72;;;88.95;;
17197;SDS011;8715;51.010;6.812;2022-12-18T05:53:12;112.75;;;104.40;;
17197;SDS011;8715;51.010;6.812;2022-12-18T05:59:00;90.72;;;84.32;;
17197;SDS011;8715;51.010;6.812;2022-12-18T06:01:26;90.32;;;83.28;;
17197;SDS011;8715;51.010;6.812;2022-12-18T06:03:51;90.68;;;83.45;;
17197;SDS011;8715;51.010;6.812;2022-12-18T06:06:21;95.28;;;88.22;;
17197;SDS011;8715;51.010;6.812;2022-12-18T06:08:48;103.95;;;95.70;;
17197;SDS011;8715;51.010;6.812;2022-12-18T06:11:16;98.40;;;90.63;;
17197;SDS011;8715;51.010;6.812;2022-12-18T06:13:49;91.18;;;84.28;;
17197;SDS011;8715;51.010;6.812;2022-12-18T06:16:15;98.47;;;91.40;;
17197;SDS011;8715;51.010;6.812;2022-12-18T06:18:40;99.10;;;90.90;;
17197;SDS011;8715;51.010;6.812;2022-12-18T06:21:05;94.00;;;86.87;;
17197;SDS011;8715;51.010;6.812;2022-12-18T06:23:31;110.72;;;102.60;;
17197;SDS011;8715;51.010;6.812;2022-12-18T06:25:56;96.65;;;89.13;;
17197;SDS011;8715;51.010;6.812;2022-12-18T06:28:21;96.70;;;88.73;;
17197;SDS011;8715;51.010;6.812;2022-12-18T06:30:47;102.37;;;94.67;;
17197;SDS011;8715;51.010;6.812;2022-12-18T06:33:13;94.20;;;87.35;;
17197;SDS011;8715;51.010;6.812;2022-12-18T06:35:39;101.45;;;94.00;;
17197;SDS011;8715;51.010;6.812;2022-12-18T06:38:04;97.75;;;91.05;;
17197;SDS011;8715;51.010;6.812;2022-12-18T06:40:30;97.35;;;89.82;;
17197;SDS011;8715;51.010;6.812;2022-12-18T06:42:55;94.07;;;86.33;;
17197;SDS011;8715;51.010;6.812;2022-12-18T06:45:21;94.47;;;86.73;;
17197;SDS011;8715;51.010;6.812;2022-12-18T06:47:46;103.10;;;94.95;;
17197;SDS011;8715;51.010;6.812;2022-12-18T06:50:12;99.47;;;91.27;;
17197;SDS011;8715;51.010;6.812;2022-12-18T06:52:37;98.57;;;91.35;;
17197;SDS011;8715;51.010;6.812;2022-12-18T06:55:04;105.80;;;98.22;;
17197;SDS011;8715;51.010;6.812;2022-12-18T06:57:30;95.57;;;88.55;;
17197;SDS011;8715;51.010;6.812;2022-12-18T06:59:55;101.53;;;94.00;;
17197;SDS011;8715;51.010;6.812;2022-12-18T07:02:20;106.32;;;98.30;;
17197;SDS011;8715;51.010;6.812;2022-12-18T07:04:46;98.53;;;91.00;;
17197;SDS011;8715;51.010;6.812;2022-12-18T07:07:14;121.78;;;113.43;;
17197;SDS011;8715;51.010;6.812;2022-12-18T07:09:40;97.47;;;90.73;;
17197;SDS011;8715;51.010;6.812;2022-12-18T07:12:05;100.30;;;92.87;;
17197;SDS011;8715;51.010;6.812;2022-12-18T07:14:33;97.57;;;90.45;;
17197;SDS011;8715;51.010;6.812;2022-12-18T07:16:58;100.57;;;92.97;;
17197;SDS011;8715;51.010;6.812;2022-12-18T07:19:24;98.93;;;90.63;;
17197;SDS011;8715;51.010;6.812;2022-12-18T07:21:49;101.07;;;93.97;;
17197;SDS011;8715;51.010;6.812;2022-12-18T07:24:15;103.97;;;96.15;;
17197;SDS011;8715;51.010;6.812;2022-12-18T07:26:40;97.20;;;90.10;;
17197;SDS011;8715;51.010;6.812;2022-12-18T07:29:06;101.67;;;93.50;;
17197;SDS011;8715;51.010;6.812;2022-12-18T07:31:31;97.75;;;90.47;;
17197;SDS011;8715;51.010;6.812;2022-12-18T07:33:56;103.67;;;95.97;;
17197;SDS011;8715;51.010;6.812;2022-12-18T07:36:22;95.72;;;87.82;;
17197;SDS011;8715;51.010;6.812;2022-12-18T07:38:47;99.33;;;91.73;;
17197;SDS011;8715;51.010;6.812;2022-12-18T07:41:13;97.88;;;90.55;;
17197;SDS011;8715;51.010;6.812;2022-12-18T07:43:39;94.30;;;86.95;;
17197;SDS011;8715;51.010;6.812;2022-12-18T07:46:05;103.20;;;95.70;;
17197;SDS011;8715;51.010;6.812;2022-12-18T07:48:31;102.47;;;94.50;;
17197;SDS011;8715;51.010;6.812;2022-12-18T07:51:00;103.38;;;95.68;;
17197;SDS011;8715;51.010;6.812;2022-12-18T07:53:26;104.45;;;97.40;;
17197;SDS011;8715;51.010;6.812;2022-12-18T07:55:55;98.75;;;90.93;;
17197;SDS011;8715;51.010;6.812;2022-12-18T07:58:21;107.50;;;99.20;;
17197;SDS011;8715;51.010;6.812;2022-12-18T08:00:47;110.15;;;101.47;;
17197;SDS011;8715;51.010;6.812;2022-12-18T08:03:12;105.20;;;97.00;;
17197;SDS011;8715;51.010;6.812;2022-12-18T08:05:40;105.68;;;98.03;;
17197;SDS011;8715;51.010;6.812;2022-12-18T08:08:05;114.97;;;104.45;;
17197;SDS011;8715;51.010;6.812;2022-12-18T08:10:31;104.20;;;96.77;;
17197;SDS011;8715;51.010;6.812;2022-12-18T08:12:56;111.07;;;103.22;;
17197;SDS011;8715;51.010;6.812;2022-12-18T08:15:22;99.50;;;92.00;;
17197;SDS011;8715;51.010;6.812;2022-12-18T08:17:47;110.60;;;102.17;;
17197;SDS011;8715;51.010;6.812;2022-12-18T08:20:12;112.00;;;102.38;;
17197;SDS011;8715;51.010;6.812;2022-12-18T08:22:39;108.38;;;100.20;;
17197;SDS011;8715;51.010;6.812;2022-12-18T08:25:06;106.03;;;98.10;;
17197;SDS011;8715;51.010;6.812;2022-12-18T08:27:32;113.05;;;104.10;;
17197;SDS011;8715;51.010;6.812;2022-12-18T08:29:58;119.55;;;111.22;;
17197;SDS011;8715;51.010;6.812;2022-12-18T08:32:27;114.10;;;105.07;;
17197;SDS011;8715;51.010;6.812;2022-12-18T08:34:53;107.22;;;98.85;;
17197;SDS011;8715;51.010;6.812;2022-12-18T08:37:18;111.25;;;102.53;;
17197;SDS011;8715;51.010;6.812;2022-12-18T08:39:43;113.28;;;104.90;;
17197;SDS011;8715;51.010;6.812;2022-12-18T08:42:09;115.55;;;105.93;;
17197;SDS011;8715;51.010;6.812;2022-12-18T08:44:53;115.50;;;107.20;;
17197;SDS011;8715;51.010;6.812;2022-12-18T08:47:18;113.63;;;105.27;;
17197;SDS011;8715;51.010;6.812;2022-12-18T08:49:44;111.57;;;103.30;;
17197;SDS011;8715;51.010;6.812;2022-12-18T08:52:09;113.97;;;105.80;;
17197;SDS011;8715;51.010;6.812;2022-12-18T08:54:34;111.03;;;102.40;;
17197;SDS011;8715;51.010;6.812;2022-12-18T08:57:00;112.37;;;104.53;;
17197;SDS011;8715;51.010;6.812;2022-12-18T08:59:25;113.63;;;105.37;;
17197;SDS011;8715;51.010;6.812;2022-12-18T09:01:53;123.40;;;114.88;;
17197;SDS011;8715;51.010;6.812;2022-12-18T09:04:18;123.50;;;114.78;;
17197;SDS011;8715;51.010;6.812;2022-12-18T09:06:44;121.53;;;112.90;;
17197;SDS011;8715;51.010;6.812;2022-12-18T09:09:09;122.27;;;113.63;;
17197;SDS011;8715;51.010;6.812;2022-12-18T09:11:35;121.00;;;112.93;;
17197;SDS011;8715;51.010;6.812;2022-12-18T09:14:00;120.93;;;113.10;;
17197;SDS011;8715;51.010;6.812;2022-12-18T09:16:26;120.32;;;112.00;;
17197;SDS011;8715;51.010;6.812;2022-12-18T09:18:54;113.45;;;105.43;;
17197;SDS011;8715;51.010;6.812;2022-12-18T09:21:24;119.45;;;111.20;;
17197;SDS011;8715;51.010;6.812;2022-12-18T09:23:50;128.20;;;120.15;;
17197;SDS011;8715;51.010;6.812;2022-12-18T09:26:16;130.18;;;120.45;;
17197;SDS011;8715;51.010;6.812;2022-12-18T09:28:42;124.07;;;115.03;;
17197;SDS011;8715;51.010;6.812;2022-12-18T09:31:08;123.15;;;114.95;;
17197;SDS011;8715;51.010;6.812;2022-12-18T09:33:34;125.78;;;117.18;;
17197;SDS011;8715;51.010;6.812;2022-12-18T09:36:02;125.38;;;116.68;;
17197;SDS011;8715;51.010;6.812;2022-12-18T09:38:28;122.43;;;114.00;;
17197;SDS011;8715;51.010;6.812;2022-12-18T09:40:54;128.13;;;119.83;;
17197;SDS011;8715;51.010;6.812;2022-12-18T09:43:28;125.45;;;116.50;;
17197;SDS011;8715;51.010;6.812;2022-12-18T09:46:01;123.75;;;115.95;;
17197;SDS011;8715;51.010;6.812;2022-12-18T09:48:31;126.80;;;118.82;;
17197;SDS011;8715;51.010;6.812;2022-12-18T09:51:00;125.03;;;116.75;;
17197;SDS011;8715;51.010;6.812;2022-12-18T09:53:30;138.73;;;129.23;;
17197;SDS011;8715;51.010;6.812;2022-12-18T09:55:56;132.73;;;124.57;;
17197;SDS011;8715;51.010;6.812;2022-12-18T10:00:55;139.85;;;131.38;;
17197;SDS011;8715;51.010;6.812;2022-12-18T10:03:20;132.95;;;124.13;;
17197;SDS011;8715;51.010;6.812;2022-12-18T10:05:59;130.30;;;121.60;;
17197;SDS011;8715;51.010;6.812;2022-12-18T10:13:57;134.43;;;125.90;;
17197;SDS011;8715;51.010;6.812;2022-12-18T10:22:11;137.93;;;128.68;;
17197;SDS011;8715;51.010;6.812;2022-12-18T10:27:29;135.85;;;127.45;;
17197;SDS011;8715;51.010;6.812;2022-12-18T10:29:54;147.40;;;138.07;;
17197;SDS011;8715;51.010;6.812;2022-12-18T10:32:21;135.47;;;126.67;;
17197;SDS011;8715;51.010;6.812;2022-12-18T10:34:48;140.05;;;130.40;;
17197;SDS011;8715;51.010;6.812;2022-12-18T10:37:15;152.48;;;142.23;;
17197;SDS011;8715;51.010;6.812;2022-12-18T10:39:46;144.77;;;135.45;;
17197;SDS011;8715;51.010;6.812;2022-12-18T10:42:19;139.05;;;130.15;;
17197;SDS011;8715;51.010;6.812;2022-12-18T10:44:45;136.25;;;127.35;;
17197;SDS011;8715;51.010;6.812;2022-12-18T10:47:17;136.20;;;127.63;;
17197;SDS011;8715;51.010;6.812;2022-12-18T10:49:47;141.90;;;133.15;;
17197;SDS011;8715;51.010;6.812;2022-12-18T10:52:16;135.82;;;127.03;;
17197;SDS011;8715;51.010;6.812;2022-12-18T10:54:52;143.90;;;134.48;;
17197;SDS011;8715;51.010;6.812;2022-12-18T10:59:52;159.98;;;149.98;;
17197;SDS011;8715;51.010;6.812;2022-12-18T11:02:37;140.93;;;131.13;;
17197;SDS011;8715;51.010;6.812;2022-12-18T11:05:05;150.60;;;141.50;;
17197;SDS011;8715;51.010;6.812;2022-12-18T11:07:49;143.57;;;134.02;;
17197;SDS011;8715;51.010;6.812;2022-12-18T11:10:18;148.75;;;138.95;;
17197;SDS011;8715;51.010;6.812;2022-12-18T11:12:46;151.77;;;142.38;;
17197;SDS011;8715;51.010;6.812;2022-12-18T11:15:15;153.05;;;142.98;;
17197;SDS011;8715;51.010;6.812;2022-12-18T11:17:42;153.75;;;143.93;;
17197;SDS011;8715;51.010;6.812;2022-12-18T11:23:00;158.07;;;148.38;;
17197;SDS011;8715;51.010;6.812;2022-12-18T11:25:28;146.18;;;137.10;;
17197;SDS011;8715;51.010;6.812;2022-12-18T11:27:58;147.02;;;137.65;;
17197;SDS011;8715;51.010;6.812;2022-12-18T11:30:34;148.48;;;139.27;;
17197;SDS011;8715;51.010;6.812;2022-12-18T11:35:35;151.27;;;142.38;;
17197;SDS011;8715;51.010;6.812;2022-12-18T11:38:10;147.20;;;138.70;;
17197;SDS011;8715;51.010;6.812;2022-12-18T11:40:42;154.88;;;145.25;;
17197;SDS011;8715;51.010;6.812;2022-12-18T11:43:14;157.05;;;146.98;;
17197;SDS011;8715;51.010;6.812;2022-12-18T11:45:53;198.75;;;187.35;;
17197;SDS011;8715;51.010;6.812;2022-12-18T11:48:22;152.90;;;143.25;;
17197;SDS011;8715;51.010;6.812;2022-12-18T11:53:22;153.07;;;143.48;;
17197;SDS011;8715;51.010;6.812;2022-12-18T11:58:39;149.13;;;139.77;;
17197;SDS011;8715;51.010;6.812;2022-12-18T12:14:49;151.57;;;142.25;;
17197;SDS011;8715;51.010;6.812;2022-12-18T12:20:44;159.60;;;147.40;;
17197;SDS011;8715;51.010;6.812;2022-12-18T12:23:37;153.68;;;142.88;;
17197;SDS011;8715;51.010;6.812;2022-12-18T12:34:16;152.77;;;143.27;;
17197;SDS011;8715;51.010;6.812;2022-12-18T12:37:05;149.00;;;139.80;;
17197;SDS011;8715;51.010;6.812;2022-12-18T12:39:51;153.02;;;142.90;;
17197;SDS011;8715;51.010;6.812;2022-12-18T12:45:29;143.80;;;134.50;;
17197;SDS011;8715;51.010;6.812;2022-12-18T12:48:00;148.45;;;138.77;;
17197;SDS011;8715;51.010;6.812;2022-12-18T12:50:27;148.27;;;138.18;;
17197;SDS011;8715;51.010;6.812;2022-12-18T12:52:54;149.82;;;139.85;;
17197;SDS011;8715;51.010;6.812;2022-12-18T12:55:24;153.57;;;142.52;;
17197;SDS011;8715;51.010;6.812;2022-12-18T13:00:35;143.25;;;133.68;;
17197;SDS011;8715;51.010;6.812;2022-12-18T13:06:02;147.15;;;136.80;;
17197;SDS011;8715;51.010;6.812;2022-12-18T13:08:51;154.02;;;143.88;;
17197;SDS011;8715;51.010;6.812;2022-12-18T13:11:28;145.60;;;136.10;;
17197;SDS011;8715;51.010;6.812;2022-12-18T13:19:42;147.57;;;138.10;;
17197;SDS011;8715;51.010;6.812;2022-12-18T13:22:21;151.88;;;141.77;;
17197;SDS011;8715;51.010;6.812;2022-12-18T13:24:47;153.93;;;144.05;;
17197;SDS011;8715;51.010;6.812;2022-12-18T13:27:58;155.63;;;145.63;;
17197;SDS011;8715;51.010;6.812;2022-12-18T13:35:39;148.80;;;138.70;;
17197;SDS011;8715;51.010;6.812;2022-12-18T13:38:55;150.77;;;140.40;;
17197;SDS011;8715;51.010;6.812;2022-12-18T13:41:04;141.75;;;131.85;;
17197;SDS011;8715;51.010;6.812;2022-12-18T13:43:48;145.57;;;135.30;;
17197;SDS011;8715;51.010;6.812;2022-12-18T13:46:25;159.98;;;149.57;;
17197;SDS011;8715;51.010;6.812;2022-12-18T13:53:56;141.57;;;132.02;;
17197;SDS011;8715;51.010;6.812;2022-12-18T13:56:25;145.45;;;135.77;;
17197;SDS011;8715;51.010;6.812;2022-12-18T14:01:36;149.93;;;140.23;;
17197;SDS011;8715;51.010;6.812;2022-12-18T14:09:31;152.63;;;141.23;;
17197;SDS011;8715;51.010;6.812;2022-12-18T14:14:45;146.50;;;136.23;;
17197;SDS011;8715;51.010;6.812;2022-12-18T14:17:12;181.38;;;169.90;;
17197;SDS011;8715;51.010;6.812;2022-12-18T14:19:41;151.75;;;140.98;;
17197;SDS011;8715;51.010;6.812;2022-12-18T14:22:12;146.85;;;137.40;;
17197;SDS011;8715;51.010;6.812;2022-12-18T14:24:40;155.38;;;145.02;;
17197;SDS011;8715;51.010;6.812;2022-12-18T14:27:41;153.87;;;143.20;;
17197;SDS011;8715;51.010;6.812;2022-12-18T14:30:01;154.95;;;143.43;;
17197;SDS011;8715;51.010;6.812;2022-12-18T14:32:34;154.65;;;144.75;;
17197;SDS011;8715;51.010;6.812;2022-12-18T14:34:59;151.67;;;141.60;;
17197;SDS011;8715;51.010;6.812;2022-12-18T14:37:38;145.73;;;135.60;;
17197;SDS011;8715;51.010;6.812;2022-12-18T14:40:03;151.68;;;140.95;;
17197;SDS011;8715;51.010;6.812;2022-12-18T14:42:29;147.60;;;136.88;;
17197;SDS011;8715;51.010;6.812;2022-12-18T14:47:58;143.93;;;134.32;;
17197;SDS011;8715;51.010;6.812;2022-12-18T14:50:24;141.63;;;131.95;;
17197;SDS011;8715;51.010;6.812;2022-12-18T14:52:49;148.32;;;139.05;;
17197;SDS011;8715;51.010;6.812;2022-12-18T14:55:18;137.15;;;127.78;;
17197;SDS011;8715;51.010;6.812;2022-12-18T14:57:45;157.20;;;147.10;;
17197;SDS011;8715;51.010;6.812;2022-12-18T15:00:15;147.23;;;135.95;;
17197;SDS011;8715;51.010;6.812;2022-12-18T15:02:42;150.75;;;140.43;;
17197;SDS011;8715;51.010;6.812;2022-12-18T15:05:19;145.95;;;136.50;;
17197;SDS011;8715;51.010;6.812;2022-12-18T15:07:47;147.20;;;137.55;;
17197;SDS011;8715;51.010;6.812;2022-12-18T15:10:15;144.50;;;133.82;;
17197;SDS011;8715;51.010;6.812;2022-12-18T15:12:48;146.05;;;136.10;;
17197;SDS011;8715;51.010;6.812;2022-12-18T15:20:27;140.07;;;130.77;;
17197;SDS011;8715;51.010;6.812;2022-12-18T15:22:52;144.40;;;134.77;;
17197;SDS011;8715;51.010;6.812;2022-12-18T15:25:27;140.93;;;130.70;;
17197;SDS011;8715;51.010;6.812;2022-12-18T15:27:59;142.75;;;132.38;;
17197;SDS011;8715;51.010;6.812;2022-12-18T15:30:25;153.38;;;142.57;;
17197;SDS011;8715;51.010;6.812;2022-12-18T15:32:51;140.07;;;130.15;;
17197;SDS011;8715;51.010;6.812;2022-12-18T15:35:19;143.93;;;134.38;;
17197;SDS011;8715;51.010;6.812;2022-12-18T15:37:45;148.27;;;138.32;;
17197;SDS011;8715;51.010;6.812;2022-12-18T15:40:17;144.57;;;134.00;;
17197;SDS011;8715;51.010;6.812;2022-12-18T15:42:46;140.82;;;131.55;;
17197;SDS011;8715;51.010;6.812;2022-12-18T15:45:31;139.85;;;129.93;;
17197;SDS011;8715;51.010;6.812;2022-12-18T15:47:57;144.50;;;134.15;;
17197;SDS011;8715;51.010;6.812;2022-12-18T15:50:22;134.45;;;124.30;;
17197;SDS011;8715;51.010;6.812;2022-12-18T15:52:48;146.10;;;134.75;;
17197;SDS011;8715;51.010;6.812;2022-12-18T15:55:19;143.38;;;133.70;;
17197;SDS011;8715;51.010;6.812;2022-12-18T15:58:04;144.10;;;133.65;;
17197;SDS011;8715;51.010;6.812;2022-12-18T16:00:31;137.52;;;127.93;;
17197;SDS011;8715;51.010;6.812;2022-12-18T16:02:57;146.65;;;137.32;;
17197;SDS011;8715;51.010;6.812;2022-12-18T16:05:23;143.18;;;133.02;;
17197;SDS011;8715;51.010;6.812;2022-12-18T16:07:48;139.45;;;129.18;;
17197;SDS011;8715;51.010;6.812;2022-12-18T16:10:14;150.60;;;137.60;;
17197;SDS011;8715;51.010;6.812;2022-12-18T16:12:39;147.55;;;137.77;;
17197;SDS011;8715;51.010;6.812;2022-12-18T16:15:06;149.82;;;139.35;;
17197;SDS011;8715;51.010;6.812;2022-12-18T16:17:32;145.90;;;136.15;;
17197;SDS011;8715;51.010;6.812;2022-12-18T16:19:57;148.45;;;137.88;;
17197;SDS011;8715;51.010;6.812;2022-12-18T16:22:26;144.25;;;133.70;;
17197;SDS011;8715;51.010;6.812;2022-12-18T16:24:53;155.18;;;144.80;;
17197;SDS011;8715;51.010;6.812;2022-12-18T16:27:19;159.55;;;147.98;;
17197;SDS011;8715;51.010;6.812;2022-12-18T16:29:45;147.23;;;136.75;;
17197;SDS011;8715;51.010;6.812;2022-12-18T16:32:12;148.88;;;138.00;;
17197;SDS011;8715;51.010;6.812;2022-12-18T16:34:47;145.43;;;136.00;;